Time;durP1;ratioP1;P1;durP2;ratioP2;P2;SDS_P1;SDS_P2;PMS_P1;PMS_P2;Temp;Humidity;BMP_temperature;BMP_pressure;BME280_temperature;BME280_humidity;BME280_pressure;Samples;Min_cycle;Max_cycle;Signal;HPM_P1;HPM_P2
2020/12/01 00:01:23;;;;;;;5.63;2.22;;;22.50;37.50;;;;;;5110990;28;20039;-79
2020/12/01 00:03:50;;;;;;;5.63;2.25;;;22.30;38.70;;;;;;5110209;28;20028;-84
2020/12/01 00:06:17;;;;;;;8.50;2.13;;;21.60;39.00;;;;;;5112042;28;20031;-79
2020/12/01 00:08:44;;;;;;;6.78;2.25;;;20.90;39.50;;;;;;5110135;28;20120;-79
2020/12/01 00:11:14;;;;;;;5.75;2.28;;;20.30;40.00;;;;;;5112913;28;20027;-79
2020/12/01 00:13:42;;;;;;;3.00;1.60;;;19.90;40.80;;;;;;5096924;28;20035;-79
2020/12/01 00:16:15;;;;;;;5.80;1.85;;;19.40;41.80;;;;;;5095875;28;20036;-79
2020/12/01 00:18:43;;;;;;;5.68;1.65;;;19.10;41.80;;;;;;5115629;28;20498;-80
2020/12/01 00:21:14;;;;;;;4.53;1.95;;;18.80;41.00;;;;;;5105572;28;20353;-78
2020/12/01 00:23:41;;;;;;;8.48;1.77;;;18.60;42.60;;;;;;5096157;28;20040;-78
2020/12/01 00:26:08;;;;;;;5.20;2.03;;;18.40;44.00;;;;;;5100019;28;20016;-79
2020/12/01 00:28:36;;;;;;;6.55;2.72;;;17.70;45.10;;;;;;5109720;28;20031;-78
2020/12/01 00:31:03;;;;;;;4.13;1.95;;;17.50;45.70;;;;;;5114749;28;20038;-79
2020/12/01 00:33:31;;;;;;;7.97;2.08;;;17.40;46.60;;;;;;5115597;28;20035;-79
2020/12/01 00:35:58;;;;;;;5.13;1.95;;;17.20;46.80;;;;;;5116571;28;20503;-77
2020/12/01 00:38:25;;;;;;;4.40;2.13;;;17.00;47.40;;;;;;5117316;28;20036;-78
2020/12/01 00:40:52;;;;;;;5.82;2.00;;;16.80;48.10;;;;;;5114768;28;20019;-79
2020/12/01 00:43:19;;;;;;;6.45;2.28;;;16.60;48.80;;;;;;5103364;28;20749;-79
2020/12/01 00:45:46;;;;;;;3.40;1.67;;;16.40;49.40;;;;;;5100016;28;20490;-78
2020/12/01 00:48:14;;;;;;;8.45;2.30;;;16.20;50.00;;;;;;5113091;28;20472;-78
2020/12/01 00:50:42;;;;;;;4.35;1.98;;;16.00;49.70;;;;;;5109712;28;20026;-76
2020/12/01 00:53:10;;;;;;;3.33;1.80;;;15.90;50.00;;;;;;5111866;28;20495;-77
2020/12/01 00:55:37;;;;;;;4.30;1.85;;;15.70;50.60;;;;;;5094595;28;20043;-77
2020/12/01 00:58:04;;;;;;;5.60;2.00;;;15.40;50.90;;;;;;5093724;28;20158;-78
2020/12/01 01:00:32;;;;;;;6.10;2.08;;;15.30;51.50;;;;;;5106274;28;20477;-80
2020/12/01 01:02:59;;;;;;;5.75;2.25;;;15.30;51.30;;;;;;5094817;28;20479;-77
2020/12/01 01:05:27;;;;;;;4.70;2.30;;;15.20;52.30;;;;;;5104206;28;20025;-79
2020/12/01 01:07:54;;;;;;;3.63;1.42;;;15.00;51.80;;;;;;5105991;28;20024;-79
2020/12/01 01:10:27;;;;;;;2.92;1.38;;;14.90;50.60;;;;;;5105397;28;20380;-78
2020/12/01 01:12:54;;;;;;;5.88;1.88;;;14.70;51.20;;;;;;5099742;28;20032;-78
2020/12/01 01:15:28;;;;;;;4.72;1.65;;;14.60;50.20;;;;;;5114553;28;20509;-78
2020/12/01 01:17:56;;;;;;;3.78;1.65;;;14.40;50.40;;;;;;5112630;28;20039;-78
2020/12/01 01:20:24;;;;;;;5.22;1.70;;;14.30;50.10;;;;;;5112554;28;20020;-78
2020/12/01 01:22:51;;;;;;;7.57;1.58;;;14.20;49.40;;;;;;5112515;28;20043;-78
2020/12/01 01:25:18;;;;;;;3.22;1.50;;;14.10;48.60;;;;;;5100733;28;20028;-78
2020/12/01 01:27:46;;;;;;;3.03;1.55;;;14.10;49.00;;;;;;5112109;28;20039;-78
2020/12/01 01:30:15;;;;;;;4.80;1.33;;;14.00;47.60;;;;;;5108542;28;20027;-78
2020/12/01 01:32:42;;;;;;;3.80;1.30;;;13.80;48.50;;;;;;5110902;28;20031;-78
2020/12/01 01:35:09;;;;;;;3.22;1.20;;;13.80;47.70;;;;;;5093793;28;20059;-78
2020/12/01 01:37:37;;;;;;;3.70;1.60;;;13.80;47.40;;;;;;5114092;28;20038;-78
2020/12/01 01:40:05;;;;;;;1.70;1.10;;;13.70;47.20;;;;;;5112519;28;20486;-77
2020/12/01 01:42:32;;;;;;;3.38;1.13;;;13.80;47.90;;;;;;5114371;28;20039;-77
2020/12/01 01:44:59;;;;;;;6.65;1.30;;;13.70;47.10;;;;;;5097385;28;20024;-75
2020/12/01 01:47:31;;;;;;;4.10;0.98;;;13.80;46.50;;;;;;5106167;28;20023;-79
2020/12/01 01:50:12;;;;;;;1.50;0.80;;;13.70;45.60;;;;;;5114603;28;20035;-79
2020/12/01 01:52:42;;;;;;;1.88;1.00;;;13.70;43.80;;;;;;5113315;28;20042;-78
2020/12/01 01:55:13;;;;;;;2.20;1.00;;;13.70;44.10;;;;;;5112690;28;20415;-77
2020/12/01 01:57:48;;;;;;;4.68;0.80;;;13.50;43.40;;;;;;5114056;28;20468;-77
2020/12/01 02:01:02;;;;;;;2.15;1.00;;;13.60;43.90;;;;;;5096094;28;20043;-78
2020/12/01 02:03:49;;;;;;;1.80;0.63;;;13.50;42.50;;;;;;5093629;28;20468;-77
2020/12/01 02:06:51;;;;;;;3.33;0.95;;;13.60;43.20;;;;;;5103037;28;20111;-79
2020/12/01 02:09:31;;;;;;;2.40;1.48;;;13.60;42.50;;;;;;5092910;28;20036;-78
2020/12/01 02:12:01;;;;;;;1.67;0.80;;;13.60;42.90;;;;;;5094324;28;20035;-77
2020/12/01 02:14:43;;;;;;;1.02;0.70;;;13.50;43.30;;;;;;5094347;28;20024;-78
2020/12/01 02:17:27;;;;;;;2.35;0.93;;;13.50;42.80;;;;;;5093354;28;20032;-77
2020/12/01 02:19:57;;;;;;;1.33;0.65;;;13.50;41.90;;;;;;5092734;28;20395;-77
2020/12/01 02:22:28;;;;;;;3.10;0.80;;;13.50;42.50;;;;;;5095521;28;20032;-77
2020/12/01 02:24:57;;;;;;;2.05;0.93;;;13.50;42.60;;;;;;5110548;28;20035;-77
2020/12/01 02:27:26;;;;;;;4.43;1.08;;;13.40;43.40;;;;;;5113403;28;20472;-77
2020/12/01 02:29:56;;;;;;;2.97;1.20;;;13.30;43.10;;;;;;5094482;28;20039;-77
2020/12/01 02:32:24;;;;;;;3.00;1.10;;;13.30;43.60;;;;;;5097011;28;20055;-78
2020/12/01 02:34:53;;;;;;;1.98;1.20;;;13.20;44.60;;;;;;5108513;28;20031;-78
2020/12/01 02:37:26;;;;;;;4.35;1.20;;;13.20;45.10;;;;;;5094270;28;20035;-78
2020/12/01 02:39:53;;;;;;;3.67;1.48;;;13.20;45.60;;;;;;5106826;28;20042;-77
2020/12/01 02:42:23;;;;;;;2.50;1.30;;;13.10;45.20;;;;;;5113011;28;20028;-78
2020/12/01 02:44:52;;;;;;;2.88;1.00;;;13.10;45.20;;;;;;5096104;28;20119;-77
2020/12/01 02:47:19;;;;;;;2.88;1.23;;;13.10;45.30;;;;;;5092444;28;20464;-77
2020/12/01 02:49:46;;;;;;;1.40;0.90;;;13.10;45.10;;;;;;5092790;28;20032;-77
2020/12/01 02:52:14;;;;;;;3.15;1.08;;;13.10;46.10;;;;;;5092269;28;20051;-78
2020/12/01 02:54:41;;;;;;;3.35;1.42;;;13.00;45.50;;;;;;5105577;28;20042;-77
2020/12/01 02:57:08;;;;;;;3.05;1.10;;;13.00;45.50;;;;;;5111322;28;20039;-78
2020/12/01 02:59:35;;;;;;;5.63;1.20;;;13.00;45.90;;;;;;5106221;28;20039;-78
2020/12/01 03:02:02;;;;;;;1.85;1.02;;;12.90;46.40;;;;;;5112416;28;20059;-77
2020/12/01 03:04:29;;;;;;;4.38;0.88;;;12.90;46.60;;;;;;5112558;28;20035;-77
2020/12/01 03:06:56;;;;;;;3.88;1.48;;;12.90;47.10;;;;;;5112113;28;20027;-80
2020/12/01 03:09:23;;;;;;;5.88;1.25;;;12.80;46.10;;;;;;5112110;28;20028;-78
2020/12/01 03:11:50;;;;;;;3.80;1.50;;;12.80;46.30;;;;;;5112131;28;20027;-79
2020/12/01 03:14:19;;;;;;;5.10;1.38;;;12.70;46.90;;;;;;5112325;28;20042;-77
2020/12/01 03:16:50;;;;;;;4.50;1.55;;;12.70;46.10;;;;;;5110906;28;20031;-77
2020/12/01 03:19:19;;;;;;;2.53;1.10;;;12.60;45.90;;;;;;5092160;28;20035;-77
2020/12/01 03:21:46;;;;;;;2.78;1.40;;;12.50;46.10;;;;;;5072823;28;20032;-78
2020/12/01 03:24:13;;;;;;;4.88;1.58;;;12.50;46.10;;;;;;5091544;28;20047;-78
2020/12/01 03:26:40;;;;;;;1.80;1.13;;;12.40;46.80;;;;;;5091952;28;20028;-77
2020/12/01 03:29:07;;;;;;;1.83;1.00;;;12.40;46.50;;;;;;5096396;28;20031;-77
2020/12/01 03:31:34;;;;;;;3.13;1.63;;;12.40;46.50;;;;;;5094084;28;20028;-77
2020/12/01 03:34:01;;;;;;;1.95;1.10;;;12.40;46.70;;;;;;5110128;28;20034;-77
2020/12/01 03:36:28;;;;;;;2.67;1.10;;;12.30;46.70;;;;;;5109809;28;20035;-77
2020/12/01 03:38:55;;;;;;;2.10;1.10;;;12.30;46.70;;;;;;5110079;28;20387;-76
2020/12/01 03:41:24;;;;;;;2.97;1.23;;;12.30;46.90;;;;;;5111780;28;20039;-77
2020/12/01 03:43:50;;;;;;;4.63;1.33;;;12.20;46.90;;;;;;5109789;28;20032;-77
2020/12/01 03:46:18;;;;;;;2.42;1.10;;;12.10;47.00;;;;;;5091204;28;20028;-77
2020/12/01 03:48:45;;;;;;;3.45;1.60;;;12.10;47.30;;;;;;5090890;28;20040;-77
2020/12/01 03:51:12;;;;;;;2.20;1.08;;;12.20;47.10;;;;;;5092463;28;20486;-77
2020/12/01 03:53:39;;;;;;;3.15;1.20;;;12.30;47.10;;;;;;5091217;28;20052;-77
2020/12/01 03:56:08;;;;;;;5.47;1.92;;;12.30;47.10;;;;;;5107123;28;20047;-77
2020/12/01 03:58:35;;;;;;;2.65;1.20;;;12.30;47.20;;;;;;5091386;28;20036;-76
2020/12/01 04:01:02;;;;;;;2.65;1.00;;;12.30;47.20;;;;;;5092328;28;20020;-77
2020/12/01 04:03:29;;;;;;;4.07;0.90;;;12.30;46.60;;;;;;5091194;28;20052;-77
2020/12/01 04:05:57;;;;;;;2.38;1.30;;;12.30;47.40;;;;;;5107439;28;20019;-77
2020/12/01 04:08:24;;;;;;;1.92;1.30;;;12.20;47.00;;;;;;5111911;28;20384;-77
2020/12/01 04:10:51;;;;;;;3.28;1.20;;;12.20;47.30;;;;;;5109501;28;20062;-77
2020/12/01 04:13:18;;;;;;;5.15;1.08;;;12.10;47.00;;;;;;5110696;28;20043;-78
2020/12/01 04:15:45;;;;;;;1.55;0.98;;;12.10;47.70;;;;;;5097711;28;20043;-77
2020/12/01 04:18:12;;;;;;;4.97;1.25;;;12.10;46.80;;;;;;5090534;28;20048;-78
2020/12/01 04:20:40;;;;;;;1.55;1.10;;;12.00;48.30;;;;;;5092362;28;20433;-78
2020/12/01 04:23:07;;;;;;;3.55;1.35;;;11.80;48.20;;;;;;5090814;28;20044;-78
2020/12/01 04:25:34;;;;;;;4.47;1.13;;;11.80;48.50;;;;;;5101953;28;20028;-77
2020/12/01 04:28:05;;;;;;;1.95;1.02;;;11.70;48.70;;;;;;5111344;28;20498;-78
2020/12/01 04:30:32;;;;;;;3.80;1.38;;;11.60;48.70;;;;;;5109024;28;20043;-78
2020/12/01 04:32:59;;;;;;;6.35;1.00;;;11.80;48.50;;;;;;5107629;28;20028;-78
2020/12/01 04:35:27;;;;;;;1.98;1.00;;;11.60;48.30;;;;;;5097086;28;20016;-78
2020/12/01 04:38:01;;;;;;;2.22;0.80;;;11.60;48.50;;;;;;5109473;28;20023;-77
2020/12/01 04:40:32;;;;;;;2.88;1.10;;;11.60;48.20;;;;;;5094534;28;20060;-78
2020/12/01 04:43:21;;;;;;;1.30;0.88;;;11.60;48.60;;;;;;5111403;28;20367;-77
2020/12/01 04:45:51;;;;;;;1.75;0.82;;;11.70;47.90;;;;;;5098604;28;20681;-78
2020/12/01 04:48:32;;;;;;;0.98;0.75;;;11.80;47.20;;;;;;5111838;28;20031;-78
2020/12/01 04:51:09;;;;;;;2.28;1.15;;;11.90;47.10;;;;;;5109803;28;20024;-77
2020/12/01 04:54:14;;;;;;;1.73;1.10;;;12.00;47.20;;;;;;5109077;28;20044;-78
2020/12/01 04:57:01;;;;;;;2.22;1.00;;;12.00;47.90;;;;;;5102290;28;20027;-77
2020/12/01 04:59:47;;;;;;;2.72;1.00;;;11.80;47.80;;;;;;5115144;28;20040;-78
2020/12/01 05:02:17;;;;;;;0.90;0.70;;;11.80;47.50;;;;;;5100850;28;20506;-77
2020/12/01 05:05:17;;;;;;;4.70;1.00;;;11.80;47.30;;;;;;5094074;28;20048;-77
2020/12/01 05:08:11;;;;;;;1.92;0.80;;;11.90;46.70;;;;;;5093626;28;20043;-77
2020/12/01 05:10:43;;;;;;;2.78;0.90;;;11.90;47.00;;;;;;5099962;28;20043;-77
2020/12/01 05:13:21;;;;;;;3.08;0.80;;;11.90;46.60;;;;;;5113197;28;20026;-77
2020/12/01 05:15:57;;;;;;;2.53;1.00;;;11.90;46.40;;;;;;5108033;28;20044;-77
2020/12/01 05:18:29;;;;;;;3.42;1.20;;;11.90;46.40;;;;;;5093615;28;20445;-76
2020/12/01 05:21:02;;;;;;;3.15;0.82;;;12.00;46.40;;;;;;5097602;28;20032;-76
2020/12/01 05:23:47;;;;;;;3.10;1.33;;;12.00;46.40;;;;;;5113779;28;20036;-78
2020/12/01 05:26:17;;;;;;;3.15;1.00;;;12.00;47.10;;;;;;5109528;28;20042;-77
2020/12/01 05:28:52;;;;;;;4.93;1.20;;;11.90;47.50;;;;;;5093675;28;20036;-78
2020/12/01 05:31:23;;;;;;;5.00;1.40;;;11.90;47.80;;;;;;5102277;28;20039;-78
2020/12/01 05:34:01;;;;;;;4.90;1.63;;;11.90;48.50;;;;;;5114250;28;20491;-76
2020/12/01 05:36:34;;;;;;;3.67;1.33;;;11.80;49.00;;;;;;5112330;28;20031;-78
2020/12/01 05:39:06;;;;;;;5.43;1.60;;;11.60;50.10;;;;;;5112335;28;20043;-76
2020/12/01 05:41:36;;;;;;;4.72;1.35;;;11.50;50.20;;;;;;5114165;28;20345;-76
2020/12/01 05:44:19;;;;;;;1.92;1.13;;;11.50;50.30;;;;;;5114333;28;20380;-77
2020/12/01 05:47:07;;;;;;;2.35;1.20;;;11.70;49.80;;;;;;5112758;28;20034;-77
2020/12/01 05:49:49;;;;;;;4.00;1.17;;;11.70;49.50;;;;;;5114254;28;20023;-77
2020/12/01 05:52:28;;;;;;;3.42;1.83;;;11.70;49.80;;;;;;5097333;28;20043;-77
2020/12/01 05:55:18;;;;;;;8.30;1.15;;;11.60;50.00;;;;;;5093336;28;20051;-77
2020/12/01 05:58:11;;;;;;;2.85;1.35;;;11.50;51.40;;;;;;5097697;28;20023;-78
2020/12/01 06:00:41;;;;;;;3.63;1.42;;;11.40;51.30;;;;;;5112522;28;20031;-76
2020/12/01 06:03:17;;;;;;;3.17;1.20;;;11.30;51.30;;;;;;5093664;28;20123;-76
2020/12/01 06:05:54;;;;;;;2.00;1.00;;;11.30;50.60;;;;;;5094332;28;20031;-77
2020/12/01 06:08:58;;;;;;;3.55;1.52;;;11.30;51.20;;;;;;5092860;28;20028;-76
2020/12/01 06:11:58;;;;;;;3.40;1.50;;;11.40;51.70;;;;;;5099339;28;20019;-78
2020/12/01 06:14:31;;;;;;;6.63;1.88;;;11.40;51.60;;;;;;5113296;28;20038;-77
2020/12/01 06:17:06;;;;;;;3.00;1.45;;;11.40;52.20;;;;;;5103511;28;20039;-77
2020/12/01 06:20:05;;;;;;;3.13;1.30;;;11.30;52.60;;;;;;5093211;28;20044;-77
2020/12/01 06:22:50;;;;;;;7.38;1.67;;;11.20;53.20;;;;;;5036763;28;20436;-76
2020/12/01 06:25:54;;;;;;;2.17;1.10;;;11.10;53.30;;;;;;5026488;28;20056;-75
2020/12/01 06:28:52;;;;;;;2.63;1.20;;;11.00;54.00;;;;;;5019061;28;20040;-73
2020/12/01 06:31:45;;;;;;;4.07;1.40;;;11.00;53.00;;;;;;5034822;28;20037;-73
2020/12/01 06:34:31;;;;;;;4.85;2.17;;;11.10;53.30;;;;;;5027948;28;20331;-73
2020/12/01 06:37:16;;;;;;;6.35;1.50;;;11.00;54.40;;;;;;5049144;28;20029;-74
2020/12/01 06:39:52;;;;;;;5.20;1.42;;;10.90;53.70;;;;;;5049958;28;20045;-74
2020/12/01 06:42:36;;;;;;;4.13;1.67;;;10.80;53.60;;;;;;5049973;28;20106;-74
2020/12/01 06:45:20;;;;;;;2.63;1.13;;;10.80;53.40;;;;;;5050059;28;20033;-73
2020/12/01 06:47:49;;;;;;;4.68;1.38;;;10.90;53.50;;;;;;5050035;28;20033;-73
2020/12/01 06:50:19;;;;;;;3.17;1.00;;;10.90;53.60;;;;;;5049905;28;20033;-73
2020/12/01 06:52:59;;;;;;;4.78;1.58;;;10.90;53.70;;;;;;5049627;28;20037;-74
2020/12/01 06:55:56;;;;;;;4.55;1.00;;;10.90;53.80;;;;;;5049644;28;20441;-75
2020/12/01 06:58:26;;;;;;;2.40;0.98;;;10.90;53.90;;;;;;5038997;28;20064;-73
2020/12/01 07:01:26;;;;;;;5.20;1.30;;;10.90;53.60;;;;;;5112882;28;20019;-74
2020/12/01 07:04:14;;;;;;;2.72;0.95;;;10.90;54.40;;;;;;5112851;28;20024;-74
2020/12/01 07:07:12;;;;;;;3.17;1.20;;;10.90;54.50;;;;;;5114160;28;20376;-73
2020/12/01 07:09:42;;;;;;;2.03;1.00;;;11.00;54.70;;;;;;5112203;28;20034;-74
2020/12/01 07:12:18;;;;;;;2.67;1.17;;;11.00;54.80;;;;;;5112621;28;20032;-73
2020/12/01 07:14:51;;;;;;;5.38;1.73;;;11.00;55.10;;;;;;5112224;28;20028;-74
2020/12/01 07:17:21;;;;;;;4.85;1.63;;;11.00;54.70;;;;;;5112447;28;20034;-74
2020/12/01 07:19:54;;;;;;;2.10;1.30;;;11.00;55.20;;;;;;5111470;28;20038;-74
2020/12/01 07:22:23;;;;;;;10.05;1.40;;;11.00;55.40;;;;;;5110860;28;20019;-73
2020/12/01 07:25:05;;;;;;;2.15;1.30;;;11.10;55.90;;;;;;5112243;28;20024;-73
2020/12/01 07:27:53;;;;;;;2.88;1.60;;;11.10;55.40;;;;;;5111254;28;20035;-73
2020/12/01 07:30:47;;;;;;;4.60;2.05;;;11.10;56.10;;;;;;5111533;28;20031;-73
2020/12/01 07:33:19;;;;;;;2.08;1.33;;;11.10;56.20;;;;;;5112086;28;20042;-73
2020/12/01 07:35:48;;;;;;;3.08;1.60;;;11.00;55.80;;;;;;5111648;28;20031;-73
2020/12/01 07:38:26;;;;;;;2.47;1.30;;;11.00;56.10;;;;;;5112076;28;20387;-73
2020/12/01 07:40:59;;;;;;;4.53;1.48;;;11.00;55.90;;;;;;5112133;28;20050;-73
2020/12/01 07:43:26;;;;;;;6.57;2.00;;;10.90;55.80;;;;;;5111759;28;20027;-73
2020/12/01 07:46:03;;;;;;;3.47;1.48;;;10.90;57.30;;;;;;5112031;28;20460;-73
2020/12/01 07:48:30;;;;;;;3.53;1.80;;;10.90;56.50;;;;;;5112168;28;20491;-73
2020/12/01 07:51:11;;;;;;;6.28;2.55;;;10.90;57.70;;;;;;5114359;28;20432;-72
2020/12/01 07:53:43;;;;;;;7.85;3.05;;;10.90;57.50;;;;;;5111870;28;20047;-73
2020/12/01 07:56:13;;;;;;;6.00;2.33;;;10.80;58.50;;;;;;5111695;28;20368;-73
2020/12/01 07:58:40;;;;;;;5.07;1.80;;;10.80;58.90;;;;;;5111498;28;20032;-72
2020/12/01 08:01:17;;;;;;;7.45;2.05;;;10.80;58.90;;;;;;5111776;28;20028;-72
2020/12/01 08:03:44;;;;;;;4.85;1.85;;;10.80;59.70;;;;;;5091378;28;20039;-72
2020/12/01 08:06:16;;;;;;;9.07;1.88;;;10.80;59.50;;;;;;5111167;28;20039;-73
2020/12/01 08:08:46;;;;;;;4.60;1.80;;;10.80;59.20;;;;;;5111145;28;20031;-72
2020/12/01 08:11:16;;;;;;;3.05;1.70;;;10.80;59.00;;;;;;5094785;28;20036;-73
2020/12/01 08:13:43;;;;;;;6.60;2.13;;;10.70;59.90;;;;;;5097923;28;20062;-73
2020/12/01 08:16:22;;;;;;;4.53;1.90;;;10.60;58.60;;;;;;5098106;28;20028;-71
2020/12/01 08:18:51;;;;;;;4.25;1.65;;;10.50;58.90;;;;;;5110993;28;20043;-72
2020/12/01 08:21:41;;;;;;;4.95;1.85;;;10.50;58.60;;;;;;5110246;28;20054;-71
2020/12/01 08:24:16;;;;;;;3.88;2.20;;;10.30;59.30;;;;;;5111279;28;20038;-73
2020/12/01 08:26:44;;;;;;;5.53;2.05;;;10.20;59.80;;;;;;5111427;28;20031;-72
2020/12/01 08:29:22;;;;;;;8.00;2.40;;;10.10;60.10;;;;;;5111543;28;20028;-71
2020/12/01 08:32:17;;;;;;;6.07;2.55;;;10.00;61.00;;;;;;5114198;28;20460;-73
2020/12/01 08:34:54;;;;;;;8.07;3.35;;;9.80;61.30;;;;;;5116088;28;20036;-72
2020/12/01 08:37:42;;;;;;;6.65;2.05;;;9.70;63.50;;;;;;5116312;28;20353;-73
2020/12/01 08:40:16;;;;;;;6.10;2.10;;;9.60;64.50;;;;;;5115140;28;20039;-72
2020/12/01 08:43:13;;;;;;;8.20;2.60;;;9.60;68.30;;;;;;5115462;28;20376;-71
2020/12/01 08:46:01;;;;;;;6.38;2.05;;;9.30;68.10;;;;;;5113355;28;20138;-72
2020/12/01 08:48:41;;;;;;;8.23;2.10;;;9.20;69.20;;;;;;5114896;28;20412;-74
2020/12/01 08:51:29;;;;;;;8.27;2.50;;;9.10;69.20;;;;;;5114978;28;20015;-72
2020/12/01 08:54:28;;;;;;;10.55;2.90;;;9.10;70.30;;;;;;5115089;28;20058;-72
2020/12/01 08:57:08;;;;;;;7.40;2.42;;;9.20;72.80;;;;;;5102083;28;20054;-71
2020/12/01 09:00:13;;;;;;;9.43;3.00;;;9.30;71.40;;;;;;5094602;28;20039;-74
2020/12/01 09:02:46;;;;;;;9.63;3.03;;;9.20;73.80;;;;;;5111769;28;20024;-74
2020/12/01 09:05:24;;;;;;;5.15;2.15;;;9.20;74.40;;;;;;5096413;28;20090;-73
2020/12/01 09:11:19;;;;;;;8.57;3.00;;;9.30;70.10;;;;;;5029353;28;20029;-72
2020/12/01 09:13:58;;;;;;;8.70;3.03;;;9.30;72.20;;;;;;5023972;28;20048;-73
2020/12/01 09:16:49;;;;;;;9.18;2.40;;;9.50;72.50;;;;;;5016697;28;20046;-73
2020/12/01 09:22:23;;;;;;;6.55;2.38;;;9.80;72.00;;;;;;5030948;28;20028;-72
2020/12/01 09:24:51;;;;;;;6.20;2.03;;;10.00;70.80;;;;;;5031296;28;20137;-72
2020/12/01 09:27:19;;;;;;;10.02;2.40;;;10.10;69.90;;;;;;5017261;28;20025;-72
2020/12/01 09:29:51;;;;;;;5.05;2.00;;;10.10;70.50;;;;;;5014067;28;20053;-73
2020/12/01 09:32:21;;;;;;;8.18;2.38;;;9.90;70.60;;;;;;5029881;28;20037;-72
2020/12/01 09:34:49;;;;;;;8.10;1.95;;;9.90;71.60;;;;;;5029800;28;20097;-74
2020/12/01 09:37:18;;;;;;;9.52;2.10;;;10.10;71.70;;;;;;5016211;28;20033;-75
2020/12/01 09:39:48;;;;;;;6.80;2.17;;;10.00;72.10;;;;;;5028143;28;20526;-74
2020/12/01 09:47:31;;;;;;;5.63;1.45;;;9.90;70.10;;;;;;5044301;28;20408;-73
2020/12/01 09:49:58;;;;;;;5.55;1.75;;;9.80;71.30;;;;;;5093313;28;20059;-73
2020/12/01 09:52:33;;;;;;;4.15;1.42;;;9.90;70.70;;;;;;5093382;28;20028;-75
2020/12/01 09:55:09;;;;;;;4.07;1.30;;;10.10;70.20;;;;;;5105394;28;20044;-74
2020/12/01 10:05:58;;;;;;;5.03;1.67;;;10.00;68.80;;;;;;5098431;28;20040;-76
2020/12/01 10:10:58;;;;;;;3.17;1.60;;;9.90;68.90;;;;;;5104067;28;20032;-73
2020/12/01 10:35:22;;;;;;;8.35;2.60;;;9.70;72.50;;;;;;5070095;28;20048;-73
2020/12/01 10:38:00;;;;;;;7.35;2.70;;;10.20;70.80;;;;;;5092610;28;20044;-73
2020/12/01 10:40:28;;;;;;;10.90;3.10;;;10.60;69.20;;;;;;5100478;28;20038;-73
2020/12/01 10:42:57;;;;;;;9.45;3.35;;;10.80;68.00;;;;;;5112991;28;20031;-73
2020/12/01 10:45:27;;;;;;;7.80;3.08;;;11.00;67.30;;;;;;5105033;28;20032;-74
2020/12/01 10:47:54;;;;;;;8.95;2.75;;;11.00;66.70;;;;;;5111456;28;20127;-73
2020/12/01 10:50:29;;;;;;;7.57;3.40;;;11.00;66.80;;;;;;5094223;28;20028;-73
2020/12/01 10:52:56;;;;;;;5.93;2.88;;;10.90;66.30;;;;;;5093522;28;20028;-73
2020/12/01 10:55:29;;;;;;;8.38;3.40;;;11.00;65.80;;;;;;5099386;28;20031;-74
2020/12/01 10:57:57;;;;;;;10.90;3.80;;;11.10;65.30;;;;;;5108989;28;20550;-73
2020/12/01 11:00:26;;;;;;;9.18;3.35;;;11.10;64.90;;;;;;5104217;28;20468;-74
2020/12/01 11:02:54;;;;;;;9.85;4.22;;;11.00;65.30;;;;;;5092984;28;20032;-73
2020/12/01 11:05:28;;;;;;;8.82;4.38;;;10.90;64.50;;;;;;5092319;28;20020;-73
2020/12/01 11:07:55;;;;;;;8.68;3.67;;;11.20;63.10;;;;;;5091744;28;20035;-72
2020/12/01 11:10:22;;;;;;;9.95;3.25;;;11.20;63.30;;;;;;5092161;28;20035;-72
2020/12/01 11:12:49;;;;;;;6.57;3.28;;;11.10;63.90;;;;;;5094125;28;20024;-74
2020/12/01 11:15:18;;;;;;;10.18;4.15;;;11.00;63.50;;;;;;5099538;28;20032;-74
2020/12/01 11:17:45;;;;;;;9.05;3.55;;;11.10;62.80;;;;;;5109699;28;20024;-73
2020/12/01 11:20:14;;;;;;;8.05;4.50;;;11.20;61.60;;;;;;5112134;28;20032;-73
2020/12/01 11:22:43;;;;;;;10.20;3.92;;;11.40;60.60;;;;;;5106502;28;20028;-73
2020/12/01 11:25:11;;;;;;;11.90;4.07;;;11.50;60.10;;;;;;5093283;28;20020;-73
2020/12/01 11:27:40;;;;;;;12.45;4.30;;;11.50;59.80;;;;;;5092194;28;20028;-73
2020/12/01 11:30:08;;;;;;;8.73;3.97;;;11.60;58.60;;;;;;5092663;28;20131;-72
2020/12/01 11:32:35;;;;;;;7.57;4.18;;;11.60;58.60;;;;;;5092926;28;20048;-73
2020/12/01 11:35:04;;;;;;;7.82;4.35;;;11.70;57.70;;;;;;5106155;28;20027;-73
2020/12/01 11:37:31;;;;;;;11.13;4.75;;;11.60;58.50;;;;;;5092210;28;20024;-73
2020/12/01 11:39:58;;;;;;;7.72;3.35;;;11.60;57.80;;;;;;5100800;28;20031;-73
2020/12/01 11:42:25;;;;;;;7.32;4.22;;;11.50;58.30;;;;;;5112089;28;20016;-73
2020/12/01 11:44:52;;;;;;;10.48;4.78;;;11.50;58.00;;;;;;5102142;28;20031;-73
2020/12/01 11:47:19;;;;;;;10.30;4.13;;;11.40;59.10;;;;;;5091656;28;20028;-73
2020/12/01 11:49:46;;;;;;;12.95;4.57;;;11.20;58.60;;;;;;5097161;28;20024;-73
2020/12/01 11:52:13;;;;;;;8.52;4.10;;;11.40;57.80;;;;;;5112002;28;20020;-73
2020/12/01 11:54:40;;;;;;;8.32;4.20;;;11.30;58.50;;;;;;5104750;28;20052;-73
2020/12/01 11:57:07;;;;;;;10.32;4.20;;;11.40;58.20;;;;;;5091422;28;20020;-73
2020/12/01 11:59:34;;;;;;;8.00;4.10;;;11.50;57.40;;;;;;5096315;28;20032;-74
2020/12/01 12:02:01;;;;;;;11.95;5.10;;;11.60;57.40;;;;;;5109245;28;20099;-74
2020/12/01 12:04:28;;;;;;;8.50;4.10;;;11.60;57.10;;;;;;5110561;28;20466;-74
2020/12/01 12:06:55;;;;;;;9.63;4.30;;;11.50;57.10;;;;;;5090417;28;20489;-73
2020/12/01 12:09:22;;;;;;;9.38;3.53;;;11.60;57.00;;;;;;5091331;28;20016;-74
2020/12/01 12:11:49;;;;;;;5.03;3.03;;;11.60;57.20;;;;;;5092052;28;20051;-73
2020/12/01 12:14:17;;;;;;;5.65;2.88;;;11.50;57.30;;;;;;5104141;28;20039;-73
2020/12/01 12:16:43;;;;;;;5.38;2.65;;;11.50;57.60;;;;;;5091179;28;20036;-72
2020/12/01 12:19:10;;;;;;;8.05;3.05;;;11.50;57.60;;;;;;5103678;28;20464;-73
2020/12/01 12:21:38;;;;;;;9.20;3.38;;;11.40;57.90;;;;;;5099884;28;20044;-71
2020/12/01 12:24:05;;;;;;;8.68;2.97;;;11.40;57.90;;;;;;5091225;28;20027;-74
2020/12/01 12:26:32;;;;;;;6.28;2.60;;;11.40;58.10;;;;;;5100014;28;20046;-73
2020/12/01 12:28:59;;;;;;;3.72;2.00;;;11.30;58.20;;;;;;5099706;28;20051;-73
2020/12/01 12:31:26;;;;;;;5.85;2.80;;;11.20;58.30;;;;;;5092093;28;20025;-73
2020/12/01 12:33:53;;;;;;;8.27;3.25;;;11.10;61.50;;;;;;5092029;28;20024;-72
2020/12/01 12:36:20;;;;;;;7.00;2.70;;;10.70;65.70;;;;;;5107431;28;20032;-73
2020/12/01 12:38:47;;;;;;;5.78;2.45;;;10.60;65.90;;;;;;5107938;28;20031;-73
2020/12/01 12:41:14;;;;;;;12.48;3.85;;;10.40;64.90;;;;;;5091906;28;20071;-73
2020/12/01 12:43:41;;;;;;;11.70;4.47;;;10.30;74.70;;;;;;5091819;28;20029;-73
2020/12/01 12:46:08;;;;;;;15.93;5.72;;;10.10;78.20;;;;;;5101609;28;20031;-73
2020/12/01 12:48:35;;;;;;;9.95;4.28;;;9.60;83.70;;;;;;5111126;28;20020;-73
2020/12/01 12:51:02;;;;;;;11.35;4.68;;;9.50;87.50;;;;;;5110743;28;20015;-73
2020/12/01 12:53:30;;;;;;;14.10;4.38;;;9.20;91.00;;;;;;5108454;28;20502;-73
2020/12/01 12:55:57;;;;;;;6.95;2.85;;;9.00;92.60;;;;;;5100980;28;20028;-73
2020/12/01 12:58:24;;;;;;;6.35;3.20;;;9.20;81.30;;;;;;5091129;28;20024;-73
2020/12/01 13:00:51;;;;;;;7.55;2.83;;;9.30;83.40;;;;;;5107578;28;20047;-73
2020/12/01 13:03:18;;;;;;;6.18;3.15;;;9.30;81.30;;;;;;5111519;28;20019;-73
2020/12/01 13:05:45;;;;;;;9.60;3.17;;;9.30;81.40;;;;;;5097156;28;20035;-73
2020/12/01 13:08:12;;;;;;;7.85;3.38;;;9.30;86.80;;;;;;5090801;28;20373;-73
2020/12/01 13:10:39;;;;;;;6.95;4.30;;;9.00;91.60;;;;;;5108760;28;20046;-74
2020/12/01 13:13:09;;;;;;;8.50;4.47;;;8.80;94.50;;;;;;5109633;28;20371;-74
2020/12/01 13:15:36;;;;;;;10.68;4.45;;;8.50;96.60;;;;;;5109089;28;20043;-75
2020/12/01 13:18:03;;;;;;;9.13;4.53;;;8.40;97.60;;;;;;5098515;28;20187;-74
2020/12/01 13:20:32;;;;;;;10.95;4.70;;;8.30;99.00;;;;;;5103675;28;20039;-75
2020/12/01 13:23:00;;;;;;;8.82;5.03;;;8.10;99.90;;;;;;5114441;28;20024;-74
2020/12/01 13:25:27;;;;;;;6.63;4.47;;;8.00;99.90;;;;;;5112312;28;20038;-73
2020/12/01 13:27:54;;;;;;;13.70;5.70;;;7.90;99.90;;;;;;5114277;28;20031;-74
2020/12/01 13:30:23;;;;;;;9.93;4.40;;;7.70;99.90;;;;;;5105759;28;20039;-73
2020/12/01 13:32:50;;;;;;;7.68;4.32;;;7.60;99.90;;;;;;5093993;28;20480;-74
2020/12/01 13:35:18;;;;;;;3.90;2.58;;;7.70;99.90;;;;;;5099963;28;20035;-74
2020/12/01 13:37:45;;;;;;;5.35;1.95;;;7.90;99.90;;;;;;5094182;28;20048;-73
2020/12/01 13:40:15;;;;;;;4.05;2.35;;;8.20;96.80;;;;;;5100577;28;20380;-73
2020/12/01 13:42:43;;;;;;;3.28;1.92;;;8.30;97.10;;;;;;5114245;28;20032;-74
2020/12/01 13:45:11;;;;;;;3.55;1.67;;;8.70;94.90;;;;;;5105017;28;20043;-73
2020/12/01 13:47:39;;;;;;;5.25;1.67;;;8.90;92.70;;;;;;5110850;28;20024;-73
2020/12/01 13:50:07;;;;;;;2.83;1.67;;;9.20;90.90;;;;;;5107784;28;20038;-75
2020/12/01 13:52:35;;;;;;;3.72;1.65;;;9.20;90.50;;;;;;5093928;28;20027;-75
2020/12/01 13:55:07;;;;;;;2.35;1.27;;;9.40;88.70;;;;;;5093694;28;20032;-75
2020/12/01 13:57:34;;;;;;;4.43;1.55;;;9.60;86.90;;;;;;5093252;28;20143;-75
2020/12/01 14:00:03;;;;;;;2.40;1.33;;;9.70;85.80;;;;;;5100099;28;20035;-74